sensor_id;sensor_type;location;lat;lon;timestamp;P1;durP1;ratioP1;P2;durP2;ratioP2
37459;SDS011;23318;50.966;5.284;2023-04-03T00:01:00;9.23;;;5.88;;
37459;SDS011;23318;50.966;5.284;2023-04-03T00:03:26;8.73;;;5.72;;
37459;SDS011;23318;50.966;5.284;2023-04-03T00:05:52;9.60;;;5.82;;
37459;SDS011;23318;50.966;5.284;2023-04-03T00:08:18;10.48;;;5.90;;
37459;SDS011;23318;50.966;5.284;2023-04-03T00:10:44;9.80;;;5.60;;
37459;SDS011;23318;50.966;5.284;2023-04-03T00:13:10;6.97;;;5.07;;
37459;SDS011;23318;50.966;5.284;2023-04-03T00:15:36;8.50;;;5.47;;
37459;SDS011;23318;50.966;5.284;2023-04-03T00:18:02;10.23;;;5.43;;
37459;SDS011;23318;50.966;5.284;2023-04-03T00:20:28;12.02;;;6.25;;
37459;SDS011;23318;50.966;5.284;2023-04-03T00:22:53;9.40;;;5.68;;
37459;SDS011;23318;50.966;5.284;2023-04-03T00:25:19;7.38;;;5.40;;
37459;SDS011;23318;50.966;5.284;2023-04-03T00:27:45;11.00;;;5.68;;
37459;SDS011;23318;50.966;5.284;2023-04-03T00:30:13;11.35;;;5.72;;
37459;SDS011;23318;50.966;5.284;2023-04-03T00:32:40;9.50;;;5.60;;
37459;SDS011;23318;50.966;5.284;2023-04-03T00:35:06;8.07;;;5.72;;
37459;SDS011;23318;50.966;5.284;2023-04-03T00:37:34;9.82;;;6.13;;
37459;SDS011;23318;50.966;5.284;2023-04-03T00:40:00;14.77;;;6.97;;
37459;SDS011;23318;50.966;5.284;2023-04-03T00:42:27;11.77;;;5.95;;
37459;SDS011;23318;50.966;5.284;2023-04-03T00:47:21;8.90;;;5.70;;
37459;SDS011;23318;50.966;5.284;2023-04-03T00:49:47;11.00;;;5.68;;
37459;SDS011;23318;50.966;5.284;2023-04-03T00:52:16;10.98;;;5.97;;
37459;SDS011;23318;50.966;5.284;2023-04-03T00:54:45;8.30;;;5.72;;
37459;SDS011;23318;50.966;5.284;2023-04-03T00:57:13;8.57;;;5.75;;
37459;SDS011;23318;50.966;5.284;2023-04-03T00:59:43;9.75;;;6.28;;
37459;SDS011;23318;50.966;5.284;2023-04-03T01:02:12;12.07;;;6.03;;
37459;SDS011;23318;50.966;5.284;2023-04-03T01:04:38;8.93;;;5.57;;
37459;SDS011;23318;50.966;5.284;2023-04-03T01:07:16;9.20;;;5.25;;
37459;SDS011;23318;50.966;5.284;2023-04-03T01:09:42;10.25;;;6.15;;
37459;SDS011;23318;50.966;5.284;2023-04-03T01:14:45;10.57;;;5.63;;
37459;SDS011;23318;50.966;5.284;2023-04-03T01:17:27;11.10;;;5.80;;
37459;SDS011;23318;50.966;5.284;2023-04-03T01:25:40;12.10;;;6.38;;
37459;SDS011;23318;50.966;5.284;2023-04-03T01:28:12;11.57;;;6.28;;
37459;SDS011;23318;50.966;5.284;2023-04-03T01:30:45;8.60;;;5.00;;
37459;SDS011;23318;50.966;5.284;2023-04-03T01:33:12;12.98;;;6.13;;
37459;SDS011;23318;50.966;5.284;2023-04-03T01:35:38;11.35;;;6.15;;
37459;SDS011;23318;50.966;5.284;2023-04-03T01:38:04;17.08;;;6.75;;
37459;SDS011;23318;50.966;5.284;2023-04-03T01:40:30;9.88;;;6.13;;
37459;SDS011;23318;50.966;5.284;2023-04-03T01:42:55;9.35;;;5.60;;
37459;SDS011;23318;50.966;5.284;2023-04-03T01:45:21;10.20;;;6.30;;
37459;SDS011;23318;50.966;5.284;2023-04-03T01:47:47;8.05;;;5.78;;
37459;SDS011;23318;50.966;5.284;2023-04-03T01:50:12;11.80;;;6.45;;
37459;SDS011;23318;50.966;5.284;2023-04-03T01:52:38;11.60;;;6.50;;
37459;SDS011;23318;50.966;5.284;2023-04-03T01:55:04;11.15;;;6.15;;
37459;SDS011;23318;50.966;5.284;2023-04-03T01:57:30;9.50;;;6.30;;
37459;SDS011;23318;50.966;5.284;2023-04-03T01:59:56;12.63;;;6.45;;
37459;SDS011;23318;50.966;5.284;2023-04-03T02:02:22;12.13;;;6.28;;
37459;SDS011;23318;50.966;5.284;2023-04-03T02:04:47;10.65;;;5.93;;
37459;SDS011;23318;50.966;5.284;2023-04-03T02:07:13;12.80;;;6.80;;
37459;SDS011;23318;50.966;5.284;2023-04-03T02:09:39;10.80;;;6.22;;
37459;SDS011;23318;50.966;5.284;2023-04-03T02:12:04;15.18;;;6.63;;
37459;SDS011;23318;50.966;5.284;2023-04-03T02:14:30;11.88;;;6.50;;
37459;SDS011;23318;50.966;5.284;2023-04-03T02:16:56;12.48;;;6.95;;
37459;SDS011;23318;50.966;5.284;2023-04-03T02:19:21;16.00;;;6.30;;
37459;SDS011;23318;50.966;5.284;2023-04-03T02:21:47;14.63;;;5.95;;
37459;SDS011;23318;50.966;5.284;2023-04-03T02:24:13;8.65;;;5.85;;
37459;SDS011;23318;50.966;5.284;2023-04-03T02:26:39;12.95;;;6.78;;
37459;SDS011;23318;50.966;5.284;2023-04-03T02:29:04;12.88;;;6.50;;
37459;SDS011;23318;50.966;5.284;2023-04-03T02:31:30;13.85;;;7.03;;
37459;SDS011;23318;50.966;5.284;2023-04-03T02:33:56;10.20;;;6.78;;
37459;SDS011;23318;50.966;5.284;2023-04-03T02:36:22;11.55;;;6.28;;
37459;SDS011;23318;50.966;5.284;2023-04-03T02:38:47;16.15;;;6.68;;
37459;SDS011;23318;50.966;5.284;2023-04-03T02:41:13;10.35;;;6.20;;
37459;SDS011;23318;50.966;5.284;2023-04-03T02:43:39;10.82;;;6.20;;
37459;SDS011;23318;50.966;5.284;2023-04-03T02:46:05;9.93;;;6.30;;
37459;SDS011;23318;50.966;5.284;2023-04-03T02:48:32;12.85;;;6.18;;
37459;SDS011;23318;50.966;5.284;2023-04-03T02:50:58;12.93;;;7.22;;
37459;SDS011;23318;50.966;5.284;2023-04-03T02:53:24;13.95;;;6.65;;
37459;SDS011;23318;50.966;5.284;2023-04-03T02:55:49;11.32;;;6.10;;
37459;SDS011;23318;50.966;5.284;2023-04-03T02:58:15;11.95;;;7.05;;
37459;SDS011;23318;50.966;5.284;2023-04-03T03:00:41;11.80;;;6.53;;
37459;SDS011;23318;50.966;5.284;2023-04-03T03:03:07;11.52;;;6.43;;
37459;SDS011;23318;50.966;5.284;2023-04-03T03:05:32;10.18;;;6.78;;
37459;SDS011;23318;50.966;5.284;2023-04-03T03:07:58;12.88;;;7.00;;
37459;SDS011;23318;50.966;5.284;2023-04-03T03:10:24;9.15;;;6.40;;
37459;SDS011;23318;50.966;5.284;2023-04-03T03:12:50;8.68;;;6.20;;
37459;SDS011;23318;50.966;5.284;2023-04-03T03:15:16;9.63;;;7.10;;
37459;SDS011;23318;50.966;5.284;2023-04-03T03:17:42;8.80;;;6.18;;
37459;SDS011;23318;50.966;5.284;2023-04-03T03:20:08;11.23;;;6.32;;
37459;SDS011;23318;50.966;5.284;2023-04-03T03:22:35;11.43;;;6.22;;
37459;SDS011;23318;50.966;5.284;2023-04-03T03:25:01;16.25;;;7.15;;
37459;SDS011;23318;50.966;5.284;2023-04-03T03:27:28;10.57;;;6.95;;
37459;SDS011;23318;50.966;5.284;2023-04-03T03:29:54;15.20;;;7.75;;
37459;SDS011;23318;50.966;5.284;2023-04-03T03:32:20;11.73;;;7.07;;
37459;SDS011;23318;50.966;5.284;2023-04-03T03:34:45;10.23;;;7.40;;
37459;SDS011;23318;50.966;5.284;2023-04-03T03:37:11;12.77;;;7.55;;
37459;SDS011;23318;50.966;5.284;2023-04-03T03:39:37;14.48;;;7.50;;
37459;SDS011;23318;50.966;5.284;2023-04-03T03:42:02;10.40;;;7.82;;
37459;SDS011;23318;50.966;5.284;2023-04-03T03:44:28;10.73;;;7.40;;
37459;SDS011;23318;50.966;5.284;2023-04-03T03:46:54;10.00;;;7.75;;
37459;SDS011;23318;50.966;5.284;2023-04-03T03:49:21;9.77;;;7.53;;
37459;SDS011;23318;50.966;5.284;2023-04-03T03:51:47;11.63;;;7.28;;
37459;SDS011;23318;50.966;5.284;2023-04-03T03:54:13;11.27;;;6.80;;
37459;SDS011;23318;50.966;5.284;2023-04-03T03:56:39;13.02;;;6.47;;
37459;SDS011;23318;50.966;5.284;2023-04-03T03:59:05;8.75;;;6.72;;
37459;SDS011;23318;50.966;5.284;2023-04-03T04:01:30;10.18;;;6.70;;
37459;SDS011;23318;50.966;5.284;2023-04-03T04:03:56;11.00;;;7.00;;
37459;SDS011;23318;50.966;5.284;2023-04-03T04:06:22;12.23;;;6.75;;
37459;SDS011;23318;50.966;5.284;2023-04-03T04:08:48;11.70;;;7.03;;
37459;SDS011;23318;50.966;5.284;2023-04-03T04:11:14;8.70;;;6.57;;
37459;SDS011;23318;50.966;5.284;2023-04-03T04:13:40;9.25;;;6.13;;
37459;SDS011;23318;50.966;5.284;2023-04-03T04:16:06;10.38;;;6.60;;
37459;SDS011;23318;50.966;5.284;2023-04-03T04:18:32;11.73;;;7.70;;
37459;SDS011;23318;50.966;5.284;2023-04-03T04:20:58;18.17;;;11.80;;
37459;SDS011;23318;50.966;5.284;2023-04-03T04:23:23;12.85;;;8.50;;
37459;SDS011;23318;50.966;5.284;2023-04-03T04:25:49;18.05;;;9.95;;
37459;SDS011;23318;50.966;5.284;2023-04-03T04:28:15;13.85;;;9.05;;
37459;SDS011;23318;50.966;5.284;2023-04-03T04:30:41;18.00;;;12.75;;
37459;SDS011;23318;50.966;5.284;2023-04-03T04:33:07;21.15;;;13.02;;
37459;SDS011;23318;50.966;5.284;2023-04-03T04:35:33;22.85;;;13.45;;
37459;SDS011;23318;50.966;5.284;2023-04-03T04:37:59;21.98;;;14.73;;
37459;SDS011;23318;50.966;5.284;2023-04-03T04:40:25;29.58;;;15.30;;
37459;SDS011;23318;50.966;5.284;2023-04-03T04:42:51;25.13;;;16.83;;
37459;SDS011;23318;50.966;5.284;2023-04-03T04:45:17;22.83;;;16.63;;
37459;SDS011;23318;50.966;5.284;2023-04-03T04:47:43;27.90;;;17.50;;
37459;SDS011;23318;50.966;5.284;2023-04-03T04:50:09;24.42;;;18.27;;
37459;SDS011;23318;50.966;5.284;2023-04-03T04:52:35;28.45;;;18.92;;
37459;SDS011;23318;50.966;5.284;2023-04-03T04:55:00;32.30;;;19.23;;
37459;SDS011;23318;50.966;5.284;2023-04-03T04:57:26;25.50;;;19.45;;
37459;SDS011;23318;50.966;5.284;2023-04-03T04:59:52;31.55;;;20.05;;
37459;SDS011;23318;50.966;5.284;2023-04-03T05:02:18;30.85;;;20.75;;
37459;SDS011;23318;50.966;5.284;2023-04-03T05:04:43;29.48;;;20.95;;
37459;SDS011;23318;50.966;5.284;2023-04-03T05:07:09;38.35;;;23.13;;
37459;SDS011;23318;50.966;5.284;2023-04-03T05:09:35;35.72;;;22.90;;
37459;SDS011;23318;50.966;5.284;2023-04-03T05:12:01;34.72;;;22.30;;
37459;SDS011;23318;50.966;5.284;2023-04-03T05:14:28;32.15;;;22.33;;
37459;SDS011;23318;50.966;5.284;2023-04-03T05:16:54;30.35;;;22.08;;
37459;SDS011;23318;50.966;5.284;2023-04-03T05:19:20;38.10;;;23.40;;
37459;SDS011;23318;50.966;5.284;2023-04-03T05:21:46;39.03;;;22.27;;
37459;SDS011;23318;50.966;5.284;2023-04-03T05:24:12;40.00;;;22.45;;
37459;SDS011;23318;50.966;5.284;2023-04-03T05:26:38;35.45;;;22.13;;
37459;SDS011;23318;50.966;5.284;2023-04-03T05:29:04;32.75;;;22.63;;
37459;SDS011;23318;50.966;5.284;2023-04-03T05:31:30;41.20;;;23.15;;
37459;SDS011;23318;50.966;5.284;2023-04-03T05:33:56;35.00;;;23.20;;
37459;SDS011;23318;50.966;5.284;2023-04-03T05:36:22;33.67;;;22.02;;
37459;SDS011;23318;50.966;5.284;2023-04-03T05:38:47;31.98;;;22.10;;
37459;SDS011;23318;50.966;5.284;2023-04-03T05:41:14;32.20;;;22.23;;
37459;SDS011;23318;50.966;5.284;2023-04-03T05:43:40;34.83;;;22.90;;
37459;SDS011;23318;50.966;5.284;2023-04-03T05:46:13;30.85;;;21.45;;
37459;SDS011;23318;50.966;5.284;2023-04-03T05:48:43;40.33;;;22.58;;
37459;SDS011;23318;50.966;5.284;2023-04-03T05:51:17;33.67;;;21.05;;
37459;SDS011;23318;50.966;5.284;2023-04-03T05:53:44;31.15;;;20.27;;
37459;SDS011;23318;50.966;5.284;2023-04-03T05:56:11;31.75;;;20.70;;
37459;SDS011;23318;50.966;5.284;2023-04-03T05:58:37;32.58;;;19.48;;
37459;SDS011;23318;50.966;5.284;2023-04-03T06:01:03;24.20;;;17.63;;
37459;SDS011;23318;50.966;5.284;2023-04-03T06:03:30;29.15;;;18.15;;
37459;SDS011;23318;50.966;5.284;2023-04-03T06:05:56;24.95;;;15.60;;
37459;SDS011;23318;50.966;5.284;2023-04-03T06:08:22;22.95;;;16.10;;
37459;SDS011;23318;50.966;5.284;2023-04-03T06:10:48;25.80;;;14.93;;
37459;SDS011;23318;50.966;5.284;2023-04-03T06:13:15;25.23;;;14.90;;
37459;SDS011;23318;50.966;5.284;2023-04-03T06:15:41;26.38;;;13.75;;
37459;SDS011;23318;50.966;5.284;2023-04-03T06:18:06;24.88;;;13.25;;
37459;SDS011;23318;50.966;5.284;2023-04-03T06:20:33;24.02;;;12.68;;
37459;SDS011;23318;50.966;5.284;2023-04-03T06:22:59;21.08;;;11.20;;
37459;SDS011;23318;50.966;5.284;2023-04-03T06:25:25;18.98;;;11.30;;
37459;SDS011;23318;50.966;5.284;2023-04-03T06:27:51;23.33;;;10.18;;
37459;SDS011;23318;50.966;5.284;2023-04-03T06:30:17;21.02;;;11.82;;
37459;SDS011;23318;50.966;5.284;2023-04-03T06:32:43;18.95;;;10.65;;
37459;SDS011;23318;50.966;5.284;2023-04-03T06:35:09;13.02;;;9.27;;
37459;SDS011;23318;50.966;5.284;2023-04-03T06:37:34;17.48;;;10.18;;
37459;SDS011;23318;50.966;5.284;2023-04-03T06:40:00;14.52;;;9.70;;
37459;SDS011;23318;50.966;5.284;2023-04-03T06:42:26;18.63;;;9.65;;
37459;SDS011;23318;50.966;5.284;2023-04-03T06:44:52;20.38;;;8.57;;
37459;SDS011;23318;50.966;5.284;2023-04-03T06:47:18;19.70;;;8.65;;
37459;SDS011;23318;50.966;5.284;2023-04-03T06:49:44;19.75;;;8.77;;
37459;SDS011;23318;50.966;5.284;2023-04-03T06:52:10;17.15;;;8.52;;
37459;SDS011;23318;50.966;5.284;2023-04-03T06:54:37;17.02;;;7.60;;
37459;SDS011;23318;50.966;5.284;2023-04-03T06:57:03;19.23;;;8.23;;
37459;SDS011;23318;50.966;5.284;2023-04-03T06:59:29;12.73;;;6.75;;
37459;SDS011;23318;50.966;5.284;2023-04-03T07:01:55;16.13;;;7.35;;
37459;SDS011;23318;50.966;5.284;2023-04-03T07:04:20;12.98;;;6.72;;
37459;SDS011;23318;50.966;5.284;2023-04-03T07:06:47;12.60;;;6.85;;
37459;SDS011;23318;50.966;5.284;2023-04-03T07:09:13;15.38;;;6.30;;
37459;SDS011;23318;50.966;5.284;2023-04-03T07:11:39;12.80;;;6.13;;
37459;SDS011;23318;50.966;5.284;2023-04-03T07:14:06;16.75;;;6.97;;
37459;SDS011;23318;50.966;5.284;2023-04-03T07:16:33;12.70;;;6.28;;
37459;SDS011;23318;50.966;5.284;2023-04-03T07:18:59;10.07;;;6.03;;
37459;SDS011;23318;50.966;5.284;2023-04-03T07:21:26;8.73;;;5.03;;
37459;SDS011;23318;50.966;5.284;2023-04-03T07:23:52;9.07;;;5.10;;
37459;SDS011;23318;50.966;5.284;2023-04-03T07:26:18;12.43;;;6.15;;
37459;SDS011;23318;50.966;5.284;2023-04-03T07:28:45;12.57;;;5.55;;
37459;SDS011;23318;50.966;5.284;2023-04-03T07:31:12;10.95;;;5.93;;
37459;SDS011;23318;50.966;5.284;2023-04-03T07:33:38;11.65;;;5.40;;
37459;SDS011;23318;50.966;5.284;2023-04-03T07:36:05;15.30;;;5.80;;
37459;SDS011;23318;50.966;5.284;2023-04-03T07:38:32;9.80;;;4.57;;
37459;SDS011;23318;50.966;5.284;2023-04-03T07:41:00;8.57;;;4.93;;
37459;SDS011;23318;50.966;5.284;2023-04-03T07:43:26;8.77;;;4.68;;
37459;SDS011;23318;50.966;5.284;2023-04-03T07:45:52;9.13;;;4.65;;
37459;SDS011;23318;50.966;5.284;2023-04-03T07:48:22;17.17;;;5.05;;
37459;SDS011;23318;50.966;5.284;2023-04-03T07:50:50;14.65;;;5.22;;
37459;SDS011;23318;50.966;5.284;2023-04-03T07:53:16;9.20;;;4.57;;
37459;SDS011;23318;50.966;5.284;2023-04-03T07:55:42;13.63;;;4.50;;
37459;SDS011;23318;50.966;5.284;2023-04-03T07:58:11;10.07;;;4.25;;
37459;SDS011;23318;50.966;5.284;2023-04-03T08:00:39;9.65;;;4.95;;
37459;SDS011;23318;50.966;5.284;2023-04-03T08:03:05;10.82;;;4.63;;
37459;SDS011;23318;50.966;5.284;2023-04-03T08:05:35;13.63;;;4.93;;
37459;SDS011;23318;50.966;5.284;2023-04-03T08:08:05;13.68;;;4.63;;
37459;SDS011;23318;50.966;5.284;2023-04-03T08:10:31;9.32;;;4.35;;
37459;SDS011;23318;50.966;5.284;2023-04-03T08:12:57;8.88;;;4.10;;
37459;SDS011;23318;50.966;5.284;2023-04-03T08:15:22;12.73;;;4.80;;
37459;SDS011;23318;50.966;5.284;2023-04-03T08:17:48;9.57;;;4.28;;
37459;SDS011;23318;50.966;5.284;2023-04-03T08:20:14;8.02;;;3.60;;
37459;SDS011;23318;50.966;5.284;2023-04-03T08:22:40;12.30;;;5.05;;
37459;SDS011;23318;50.966;5.284;2023-04-03T08:25:05;6.82;;;3.80;;
37459;SDS011;23318;50.966;5.284;2023-04-03T08:27:31;15.65;;;3.83;;
37459;SDS011;23318;50.966;5.284;2023-04-03T08:29:57;11.27;;;4.03;;
37459;SDS011;23318;50.966;5.284;2023-04-03T08:32:23;6.50;;;2.92;;
37459;SDS011;23318;50.966;5.284;2023-04-03T08:34:49;8.90;;;3.42;;
37459;SDS011;23318;50.966;5.284;2023-04-03T08:37:15;9.70;;;3.63;;
37459;SDS011;23318;50.966;5.284;2023-04-03T08:39:41;11.35;;;3.45;;
37459;SDS011;23318;50.966;5.284;2023-04-03T08:42:16;8.15;;;3.08;;
37459;SDS011;23318;50.966;5.284;2023-04-03T08:45:43;8.63;;;3.63;;
37459;SDS011;23318;50.966;5.284;2023-04-03T08:48:06;10.35;;;2.85;;
37459;SDS011;23318;50.966;5.284;2023-04-03T08:50:41;8.38;;;2.95;;
37459;SDS011;23318;50.966;5.284;2023-04-03T08:53:23;8.45;;;3.05;;
37459;SDS011;23318;50.966;5.284;2023-04-03T08:55:53;11.63;;;3.05;;
37459;SDS011;23318;50.966;5.284;2023-04-03T08:58:29;9.80;;;3.20;;
37459;SDS011;23318;50.966;5.284;2023-04-03T09:01:15;9.80;;;2.75;;
37459;SDS011;23318;50.966;5.284;2023-04-03T09:03:48;10.18;;;3.03;;
37459;SDS011;23318;50.966;5.284;2023-04-03T09:08:50;6.55;;;2.33;;
37459;SDS011;23318;50.966;5.284;2023-04-03T09:14:08;8.02;;;2.90;;
37459;SDS011;23318;50.966;5.284;2023-04-03T09:16:58;7.93;;;2.63;;
37459;SDS011;23318;50.966;5.284;2023-04-03T09:24:38;10.32;;;3.38;;
37459;SDS011;23318;50.966;5.284;2023-04-03T09:27:06;8.05;;;2.45;;
37459;SDS011;23318;50.966;5.284;2023-04-03T09:29:35;3.67;;;2.13;;
37459;SDS011;23318;50.966;5.284;2023-04-03T09:34:49;12.35;;;2.35;;
37459;SDS011;23318;50.966;5.284;2023-04-03T09:37:33;10.57;;;2.22;;
37459;SDS011;23318;50.966;5.284;2023-04-03T09:40:12;6.85;;;2.45;;
37459;SDS011;23318;50.966;5.284;2023-04-03T09:42:52;4.00;;;1.70;;
37459;SDS011;23318;50.966;5.284;2023-04-03T09:45:29;7.00;;;2.92;;
37459;SDS011;23318;50.966;5.284;2023-04-03T09:48:12;5.30;;;2.30;;
37459;SDS011;23318;50.966;5.284;2023-04-03T09:50:53;8.57;;;2.53;;
37459;SDS011;23318;50.966;5.284;2023-04-03T09:55:59;7.68;;;2.60;;
37459;SDS011;23318;50.966;5.284;2023-04-03T09:58:33;9.90;;;2.95;;
37459;SDS011;23318;50.966;5.284;2023-04-03T10:01:03;8.75;;;3.03;;
37459;SDS011;23318;50.966;5.284;2023-04-03T10:06:00;11.90;;;3.40;;
37459;SDS011;23318;50.966;5.284;2023-04-03T10:08:32;7.10;;;2.85;;
37459;SDS011;23318;50.966;5.284;2023-04-03T10:11:13;6.63;;;2.30;;
37459;SDS011;23318;50.966;5.284;2023-04-03T10:16:25;4.97;;;1.80;;
37459;SDS011;23318;50.966;5.284;2023-04-03T10:21:38;6.03;;;1.52;;
37459;SDS011;23318;50.966;5.284;2023-04-03T10:27:22;3.05;;;1.65;;
37459;SDS011;23318;50.966;5.284;2023-04-03T10:32:46;7.80;;;1.92;;
37459;SDS011;23318;50.966;5.284;2023-04-03T10:46:38;5.05;;;1.83;;
37459;SDS011;23318;50.966;5.284;2023-04-03T10:49:59;3.58;;;1.65;;
37459;SDS011;23318;50.966;5.284;2023-04-03T10:57:17;7.43;;;1.85;;
37459;SDS011;23318;50.966;5.284;2023-04-03T11:04:41;4.18;;;0.80;;
37459;SDS011;23318;50.966;5.284;2023-04-03T11:07:22;3.58;;;0.98;;
37459;SDS011;23318;50.966;5.284;2023-04-03T11:09:55;2.38;;;0.80;;
37459;SDS011;23318;50.966;5.284;2023-04-03T11:12:28;1.58;;;0.73;;
37459;SDS011;23318;50.966;5.284;2023-04-03T11:15:03;3.50;;;0.77;;
37459;SDS011;23318;50.966;5.284;2023-04-03T11:17:35;2.83;;;0.77;;
37459;SDS011;23318;50.966;5.284;2023-04-03T11:25:39;1.02;;;0.75;;
37459;SDS011;23318;50.966;5.284;2023-04-03T11:28:11;2.60;;;0.60;;
37459;SDS011;23318;50.966;5.284;2023-04-03T11:31:01;1.60;;;0.70;;
37459;SDS011;23318;50.966;5.284;2023-04-03T11:33:39;2.42;;;0.85;;
37459;SDS011;23318;50.966;5.284;2023-04-03T11:36:26;3.78;;;0.90;;
37459;SDS011;23318;50.966;5.284;2023-04-03T11:38:56;1.85;;;1.00;;
37459;SDS011;23318;50.966;5.284;2023-04-03T11:41:26;2.53;;;0.82;;
37459;SDS011;23318;50.966;5.284;2023-04-03T11:43:56;2.22;;;0.93;;
37459;SDS011;23318;50.966;5.284;2023-04-03T12:05:54;3.40;;;1.08;;
37459;SDS011;23318;50.966;5.284;2023-04-03T12:13:36;2.60;;;0.95;;
37459;SDS011;23318;50.966;5.284;2023-04-03T12:16:06;3.22;;;1.27;;
37459;SDS011;23318;50.966;5.284;2023-04-03T12:18:48;2.95;;;0.90;;
37459;SDS011;23318;50.966;5.284;2023-04-03T12:26:33;3.17;;;1.30;;
37459;SDS011;23318;50.966;5.284;2023-04-03T12:29:24;3.88;;;1.48;;
37459;SDS011;23318;50.966;5.284;2023-04-03T12:34:38;1.67;;;0.80;;
37459;SDS011;23318;50.966;5.284;2023-04-03T12:43:20;5.05;;;1.10;;
37459;SDS011;23318;50.966;5.284;2023-04-03T12:54:13;4.15;;;1.38;;
37459;SDS011;23318;50.966;5.284;2023-04-03T12:56:49;7.40;;;1.27;;
37459;SDS011;23318;50.966;5.284;2023-04-03T12:59:20;3.03;;;1.40;;
37459;SDS011;23318;50.966;5.284;2023-04-03T13:01:54;1.98;;;1.02;;
37459;SDS011;23318;50.966;5.284;2023-04-03T13:04:22;2.22;;;1.25;;
37459;SDS011;23318;50.966;5.284;2023-04-03T13:06:48;1.88;;;0.98;;
37459;SDS011;23318;50.966;5.284;2023-04-03T13:09:18;4.65;;;1.27;;
37459;SDS011;23318;50.966;5.284;2023-04-03T13:11:47;4.22;;;1.40;;
37459;SDS011;23318;50.966;5.284;2023-04-03T13:14:16;4.88;;;1.50;;
37459;SDS011;23318;50.966;5.284;2023-04-03T13:19:40;3.80;;;1.35;;
37459;SDS011;23318;50.966;5.284;2023-04-03T13:24:51;4.15;;;1.48;;
37459;SDS011;23318;50.966;5.284;2023-04-03T13:27:18;4.50;;;1.67;;
37459;SDS011;23318;50.966;5.284;2023-04-03T13:29:48;4.95;;;1.42;;
37459;SDS011;23318;50.966;5.284;2023-04-03T13:32:21;4.10;;;1.55;;
37459;SDS011;23318;50.966;5.284;2023-04-03T13:34:49;4.30;;;1.30;;
37459;SDS011;23318;50.966;5.284;2023-04-03T13:37:31;2.83;;;1.63;;
37459;SDS011;23318;50.966;5.284;2023-04-03T13:42:25;4.88;;;1.85;;
37459;SDS011;23318;50.966;5.284;2023-04-03T13:47:45;3.45;;;1.67;;
37459;SDS011;23318;50.966;5.284;2023-04-03T13:50:16;3.60;;;1.88;;
37459;SDS011;23318;50.966;5.284;2023-04-03T13:53:01;4.30;;;1.63;;
37459;SDS011;23318;50.966;5.284;2023-04-03T13:55:39;3.63;;;1.45;;
37459;SDS011;23318;50.966;5.284;2023-04-03T13:58:26;7.22;;;1.80;;
37459;SDS011;23318;50.966;5.284;2023-04-03T14:05:58;2.67;;;1.38;;
37459;SDS011;23318;50.966;5.284;2023-04-03T14:08:26;3.22;;;1.30;;
37459;SDS011;23318;50.966;5.284;2023-04-03T14:10:52;3.00;;;1.35;;
37459;SDS011;23318;50.966;5.284;2023-04-03T14:13:19;4.32;;;1.65;;
37459;SDS011;23318;50.966;5.284;2023-04-03T14:15:46;3.45;;;1.55;;
37459;SDS011;23318;50.966;5.284;2023-04-03T14:18:14;3.70;;;1.42;;
37459;SDS011;23318;50.966;5.284;2023-04-03T14:20:42;5.55;;;1.73;;
37459;SDS011;23318;50.966;5.284;2023-04-03T14:23:12;3.03;;;1.40;;
37459;SDS011;23318;50.966;5.284;2023-04-03T14:25:38;3.42;;;1.45;;
37459;SDS011;23318;50.966;5.284;2023-04-03T14:28:18;5.93;;;1.80;;
37459;SDS011;23318;50.966;5.284;2023-04-03T14:30:47;4.50;;;1.52;;
37459;SDS011;23318;50.966;5.284;2023-04-03T14:33:16;5.25;;;1.67;;
37459;SDS011;23318;50.966;5.284;2023-04-03T14:35:45;3.35;;;1.67;;
37459;SDS011;23318;50.966;5.284;2023-04-03T14:38:20;4.93;;;1.38;;
37459;SDS011;23318;50.966;5.284;2023-04-03T14:40:48;2.95;;;1.50;;
37459;SDS011;23318;50.966;5.284;2023-04-03T14:43:14;4.00;;;1.73;;
37459;SDS011;23318;50.966;5.284;2023-04-03T14:45:41;5.85;;;2.05;;
37459;SDS011;23318;50.966;5.284;2023-04-03T14:48:09;7.47;;;1.90;;
37459;SDS011;23318;50.966;5.284;2023-04-03T14:50:41;4.70;;;1.52;;
37459;SDS011;23318;50.966;5.284;2023-04-03T14:53:07;3.97;;;2.13;;
37459;SDS011;23318;50.966;5.284;2023-04-03T14:55:35;5.47;;;1.75;;
37459;SDS011;23318;50.966;5.284;2023-04-03T14:58:01;12.63;;;1.90;;
37459;SDS011;23318;50.966;5.284;2023-04-03T15:00:27;4.60;;;2.20;;
37459;SDS011;23318;50.966;5.284;2023-04-03T15:02:52;4.55;;;1.70;;
37459;SDS011;23318;50.966;5.284;2023-04-03T15:05:18;5.85;;;1.80;;
37459;SDS011;23318;50.966;5.284;2023-04-03T15:07:47;5.55;;;1.92;;
37459;SDS011;23318;50.966;5.284;2023-04-03T15:10:28;6.45;;;1.73;;
37459;SDS011;23318;50.966;5.284;2023-04-03T15:12:55;3.78;;;1.98;;
37459;SDS011;23318;50.966;5.284;2023-04-03T15:15:21;7.10;;;1.67;;
37459;SDS011;23318;50.966;5.284;2023-04-03T15:17:52;4.70;;;1.80;;
37459;SDS011;23318;50.966;5.284;2023-04-03T15:20:21;3.83;;;1.63;;
37459;SDS011;23318;50.966;5.284;2023-04-03T15:22:49;3.20;;;1.77;;
37459;SDS011;23318;50.966;5.284;2023-04-03T15:25:15;7.43;;;1.75;;
37459;SDS011;23318;50.966;5.284;2023-04-03T15:27:41;5.05;;;1.42;;
37459;SDS011;23318;50.966;5.284;2023-04-03T15:30:08;5.20;;;1.60;;
37459;SDS011;23318;50.966;5.284;2023-04-03T15:32:39;8.45;;;2.03;;
37459;SDS011;23318;50.966;5.284;2023-04-03T15:35:05;6.15;;;1.83;;
37459;SDS011;23318;50.966;5.284;2023-04-03T15:37:31;4.88;;;1.70;;
37459;SDS011;23318;50.966;5.284;2023-04-03T15:39:57;3.10;;;1.10;;
37459;SDS011;23318;50.966;5.284;2023-04-03T15:42:22;3.08;;;1.25;;
37459;SDS011;23318;50.966;5.284;2023-04-03T15:44:48;8.00;;;1.80;;
37459;SDS011;23318;50.966;5.284;2023-04-03T15:47:14;5.85;;;1.58;;
37459;SDS011;23318;50.966;5.284;2023-04-03T15:49:40;5.45;;;1.60;;
37459;SDS011;23318;50.966;5.284;2023-04-03T15:52:06;2.85;;;1.50;;
37459;SDS011;23318;50.966;5.284;2023-04-03T15:54:31;5.60;;;1.52;;
37459;SDS011;23318;50.966;5.284;2023-04-03T15:56:57;3.80;;;1.38;;
37459;SDS011;23318;50.966;5.284;2023-04-03T15:59:23;2.20;;;1.40;;
37459;SDS011;23318;50.966;5.284;2023-04-03T16:01:49;3.45;;;1.65;;
37459;SDS011;23318;50.966;5.284;2023-04-03T16:04:16;3.95;;;1.52;;
37459;SDS011;23318;50.966;5.284;2023-04-03T16:06:42;2.45;;;1.30;;
37459;SDS011;23318;50.966;5.284;2023-04-03T16:09:08;2.60;;;1.52;;
37459;SDS011;23318;50.966;5.284;2023-04-03T16:11:35;2.10;;;1.30;;
37459;SDS011;23318;50.966;5.284;2023-04-03T16:14:04;6.07;;;2.25;;
37459;SDS011;23318;50.966;5.284;2023-04-03T16:16:29;3.85;;;1.83;;
37459;SDS011;23318;50.966;5.284;2023-04-03T16:18:55;3.53;;;1.40;;
37459;SDS011;23318;50.966;5.284;2023-04-03T16:21:21;2.58;;;1.30;;
37459;SDS011;23318;50.966;5.284;2023-04-03T16:23:48;4.55;;;1.58;;
37459;SDS011;23318;50.966;5.284;2023-04-03T16:26:14;4.65;;;1.45;;
37459;SDS011;23318;50.966;5.284;2023-04-03T16:28:40;3.35;;;1.17;;
37459;SDS011;23318;50.966;5.284;2023-04-03T16:31:06;12.15;;;2.08;;
37459;SDS011;23318;50.966;5.284;2023-04-03T16:33:33;2.25;;;1.50;;
37459;SDS011;23318;50.966;5.284;2023-04-03T16:35:59;3.10;;;1.60;;
37459;SDS011;23318;50.966;5.284;2023-04-03T16:38:25;4.63;;;1.40;;
37459;SDS011;23318;50.966;5.284;2023-04-03T16:40:50;4.65;;;1.67;;
37459;SDS011;23318;50.966;5.284;2023-04-03T16:43:18;4.97;;;1.40;;
37459;SDS011;23318;50.966;5.284;2023-04-03T16:45:44;5.55;;;1.40;;
37459;SDS011;23318;50.966;5.284;2023-04-03T16:48:09;3.88;;;1.55;;
37459;SDS011;23318;50.966;5.284;2023-04-03T16:50:35;1.83;;;1.13;;
37459;SDS011;23318;50.966;5.284;2023-04-03T16:53:01;7.38;;;1.40;;
37459;SDS011;23318;50.966;5.284;2023-04-03T16:55:28;3.20;;;1.40;;
37459;SDS011;23318;50.966;5.284;2023-04-03T16:57:53;3.45;;;1.40;;